CMT3 weather

Foothills Hospital McCaig Tower Helipad
Calgary, Alberta, Canada

Public forecast

Using degrees Celsius for public forecast. Weather courtesy of forecast.io.

METAR (pilot weather report)

Closest report is Calgary International Airport, 5.2 nm (9.7 km) NE. Retrieved 2019/06/24 20:00 UTC (41 minutes ago):

CYYC 242000Z VRB02KT 40SM SCT055TCU SCT150 17/05 A2980 RMK TCU4AC1 AC TR DIST SH S AND NW SLP097 DENSITY ALT 4900FT

TAF (pilot weather forecast)

Closest forecast is Calgary International Airport, 5.2 nm (9.7 km) NE. Retrieved 2019/06/24 21:42 UTC (0 seconds ago):

TAF CYYC 242038Z 2421/2518 33007KT P6SM SCT050 SCT150 TEMPO 2421/2502 P6SM -SHRA VCTS SCT040CB BKN050 FM250200 34006KT P6SM VCSH BKN040 FM250900 VRB03KT P6SM SCT050 RMK NXT FCST BY 250000Z